Flight Track Log - Related Links

Times and Time Zones

All times are in EST time to prevent confusion due to time zone crossing. See the EJA929 flight status page for this flight to view local times or setup timezone preferences in your user account.

Time Position Orientation Groundspeed Altitude Reporting Facility
EST Latitude Longitude Course Direction KTS MPH feet Rate Location/Type
Sun 12:06:32 PM 17.9333 -63.0667 255° West 250 288 7,700  Level San Juan Center
Sun 12:07:33 PM 17.9167 -63.1333 255° West 300 345 11,400 3,223 Climbing San Juan Center
Sun 12:08:33 PM 17.9500 -63.2333 289° West 370 426 14,200 1,800 Climbing San Juan Center
Sun 12:09:33 PM 18.0000 -63.3500 294° West 410 472 15,000 400 Climbing San Juan Center
Sun 12:10:33 PM 18.0500 -63.4667 294° West 430 495 15,000  Level San Juan Center
Sun 12:11:34 PM 18.1000 -63.5833 294° West 430 495 15,000 744 Level San Juan Center
Sun 12:12:34 PM 18.1333 -63.7000 287° West 420 483 16,500 1,700 Climbing San Juan Center
Sun 12:13:34 PM 18.1833 -63.8000 298° West 390 449 18,400 1,587 Climbing San Juan Center
Sun 12:14:35 PM 18.2167 -63.9167 287° West 410 472 19,700 1,488 Climbing San Juan Center
Sun 12:15:35 PM 18.2667 -64.0167 298° West 410 472 21,400 1,450 Climbing San Juan Center
Sun 12:16:35 PM 18.3000 -64.1333 287° West 410 472 22,600 1,289 Climbing San Juan Center
Sun 12:17:36 PM 18.3500 -64.2500 294° West 420 483 24,000 1,488 Climbing San Juan Center
Sun 12:18:36 PM 18.4000 -64.3667 294° West 420 483 25,600 1,500 Climbing San Juan Center
Sun 12:19:36 PM 18.4333 -64.4833 287° West 430 495 27,000 1,388 Climbing San Juan Center
Sun 12:20:37 PM 18.4833 -64.6000 294° West 420 483 28,400 1,289 Climbing San Juan Center
Sun 12:21:37 PM 18.5167 -64.7167 287° West 430 495 29,600 1,140 Climbing San Juan Center
Sun 12:22:38 PM 18.5667 -64.8333 294° West 440 506 30,700 1,388 Climbing San Juan Center
Sun 12:23:38 PM 18.6167 -64.9500 294° West 440 506 32,400 1,800 Climbing San Juan Center
Sun 12:24:38 PM 18.6667 -65.0667 294° West 430 495 34,300 2,182 Climbing San Juan Center
Sun 12:25:39 PM 18.7000 -65.1833 287° West 420 483 36,800 2,281 Climbing San Juan Center
Sun 12:26:39 PM 18.7500 -65.3000 294° West 410 472 38,900 1,600 Climbing San Juan Center
Sun 12:27:39 PM 18.7833 -65.4000 289° West 400 460 40,000 545 Climbing San Juan Center
Sun 12:28:40 PM 18.8333 -65.5333 292° West 430 495 40,000  Level San Juan Center
Sun 12:29:40 PM 18.8667 -65.6333 289° West 440 506 40,000  Level San Juan Center
Sun 12:30:40 PM 18.9167 -65.7667 292° West 440 506 40,000  Level San Juan Center
Sun 12:31:41 PM 18.9500 -65.8833 287° West 430 495 40,000  Level San Juan Center
Sun 12:32:41 PM 19.0000 -66.0000 294° West 410 472 40,000  Level San Juan Center
Sun 12:33:42 PM 19.0333 -66.1167 287° West 420 483 40,000  Level San Juan Center
Sun 12:34:42 PM 19.0833 -66.2333 294° West 420 483 40,000  Level San Juan Center
Sun 12:35:42 PM 19.1167 -66.3500 287° West 420 483 40,000  Level San Juan Center
Sun 12:36:43 PM 19.1667 -66.4500 298° West 420 483 40,000  Level San Juan Center
Sun 12:37:43 PM 19.2000 -66.5500 289° West 410 472 40,000  Level San Juan Center
Sun 12:38:43 PM 19.2500 -66.6667 294° West 410 472 40,000  Level San Juan Center
Sun 12:39:44 PM 19.2833 -66.7833 287° West 420 483 40,000  Level San Juan Center
Sun 12:40:44 PM 19.3333 -66.9167 292° West 410 472 40,000  Level San Juan Center
Sun 12:41:45 PM 19.3667 -67.0333 287° West 420 483 40,000  Level San Juan Center
Sun 12:42:45 PM 19.4167 -67.1500 294° West 420 483 40,000  Level San Juan Center
Sun 12:43:45 PM 19.4500 -67.2667 287° West 420 483 40,000  Level San Juan Center
Sun 12:44:45 PM 19.5000 -67.3833 294° West 420 483 40,000  Level San Juan Center
Sun 12:45:46 PM 19.5333 -67.5000 287° West 420 483 40,000  Level San Juan Center
Sun 12:46:46 PM 19.5833 -67.6167 294° West 420 483 40,000  Level San Juan Center
Sun 12:47:46 PM 19.6167 -67.7333 287° West 420 483 40,000  Level San Juan Center
Sun 12:48:47 PM 19.6667 -67.8500 294° West 420 483 40,000  Level San Juan Center
Sun 12:49:47 PM 19.7000 -67.9667 287° West 420 483 40,000  Level San Juan Center
Sun 12:50:47 PM 19.7500 -68.0833 294° West 420 483 40,000  Level San Juan Center
Sun 12:52:29 PM 19.8331 -68.2900 293° West 450 518 40,000  Level Miami Center
Sun 12:53:29 PM 19.8725 -68.4086 289° West 444 511 40,000  Level Miami Center
Sun 12:54:29 PM 19.9100 -68.5250 289° West 434 499 40,000  Level Miami Center
Sun 12:55:29 PM 19.9658 -68.6361 298° West 429 494 40,000  Level Miami Center
Sun 12:56:29 PM 20.0356 -68.7356 307° West 424 488 40,000  Level Miami Center
Sun 12:57:29 PM 20.1033 -68.8372 305° West 424 488 40,000  Level Miami Center
Sun 12:58:29 PM 20.1769 -68.9367 308° West 429 494 40,000  Level Miami Center
Sun 12:59:29 PM 20.2450 -69.0431 304° West 434 499 40,000  Level Miami Center
Sun 01:00:29 PM 20.3167 -69.1450 307° West 434 499 40,000  Level Miami Center
Sun 01:01:29 PM 20.3861 -69.2469 306° West 434 499 40,000  Level Miami Center
Sun 01:02:29 PM 20.4536 -69.3514 305° West 434 499 40,000  Level Miami Center
Sun 01:03:29 PM 20.5250 -69.4494 308° West 434 499 40,000  Level Miami Center
Sun 01:04:29 PM 20.5947 -69.5561 305° West 434 499 40,000  Level Miami Center
Sun 01:05:29 PM 20.6661 -69.6586 307° West 439 505 40,000  Level Miami Center
Sun 01:06:29 PM 20.7356 -69.7611 306° West 434 499 40,000  Level Miami Center
Sun 01:07:29 PM 20.8047 -69.8661 305° West 434 499 40,000  Level Miami Center
Sun 01:08:29 PM 20.8761 -69.9667 307° West 434 499 40,000  Level Miami Center
Sun 01:09:29 PM 20.9431 -70.0675 305° West 429 494 40,000  Level Miami Center
Sun 01:10:29 PM 21.0100 -70.1708 305° West 429 494 40,000  Level Miami Center
Sun 01:11:29 PM 21.0811 -70.2739 306° West 429 494 40,000  Level Miami Center
Sun 01:12:29 PM 21.1500 -70.3750 306° West 434 499 40,000  Level Miami Center
Sun 01:13:29 PM 21.2211 -70.4806 306° West 434 499 40,000  Level Miami Center
Sun 01:14:29 PM 21.2881 -70.5842 305° West 434 499 40,000  Level Miami Center
Sun 01:15:29 PM 21.3589 -70.6853 307° West 434 499 40,000  Level Miami Center
Sun 01:16:29 PM 21.4297 -70.7911 306° West 439 505 40,000  Level Miami Center
Sun 01:17:29 PM 21.4983 -70.8928 306° West 432 497 40,000  Level Miami Center
Sun 01:18:29 PM 21.5692 -70.9967 306° West 427 491 40,000  Level Miami Center
Sun 01:19:29 PM 21.6333 -71.0942 305° West 434 499 40,000  Level Miami Center
Sun 01:20:29 PM 21.7019 -71.2006 305° West 434 499 40,000  Level Miami Center
Sun 01:21:30 PM 21.7683 -71.3050 304° West 434 499 40,000  Level Miami Center
Sun 01:22:29 PM 21.8347 -71.4072 305° West 434 499 40,000  Level Miami Center
Sun 01:23:29 PM 21.9031 -71.5119 305° West 434 499 40,000  Level Miami Center
Sun 01:24:29 PM 21.9733 -71.6164 306° West 434 499 40,000  Level Miami Center
Sun 01:25:29 PM 22.0417 -71.7189 306° West 434 499 40,000  Level Miami Center
Sun 01:26:29 PM 22.1119 -71.8236 306° West 434 499 40,000  Level Miami Center
Sun 01:27:29 PM 22.1781 -71.9308 304° West 434 499 40,000  Level Miami Center
Sun 01:28:29 PM 22.2481 -72.0336 306° West 434 499 40,000  Level Miami Center
Sun 01:29:29 PM 22.3161 -72.1389 305° West 434 499 40,000  Level Miami Center
Sun 01:30:29 PM 22.3864 -72.2486 305° West 434 499 40,000  Level Miami Center
Sun 01:31:29 PM 22.4542 -72.3494 306° West 434 499 40,000  Level Miami Center
Sun 01:32:29 PM 22.5219 -72.4572 304° West 434 499 40,000  Level Miami Center
Sun 01:33:29 PM 22.5897 -72.5650 304° West 434 499 40,000  Level Miami Center
Sun 01:34:29 PM 22.6594 -72.6708 306° West 434 499 40,000  Level Miami Center
Sun 01:35:29 PM 22.7292 -72.7764 306° West 434 499 40,000  Level Miami Center
Sun 01:36:29 PM 22.7947 -72.8847 303° West 434 499 40,000  Level Miami Center
Sun 01:37:29 PM 22.8664 -72.9931 306° West 439 505 40,000  Level Miami Center
Sun 01:38:29 PM 22.9339 -73.1014 304° West 433 498 40,000  Level Miami Center
Sun 01:39:29 PM 23.0014 -73.2056 305° West 433 498 40,000  Level Miami Center
Sun 01:40:29 PM 23.0686 -73.3142 304° West 433 498 40,000  Level Miami Center
Sun 01:41:29 PM 23.1419 -73.4183 307° West 433 498 40,000  Level Miami Center
Sun 01:42:29 PM 23.2092 -73.5272 304° West 433 498 40,000  Level Miami Center
Sun 01:43:29 PM 23.2742 -73.6342 304° West 433 498 40,000  Level Miami Center
Sun 01:44:29 PM 23.3456 -73.7408 306° West 433 498 40,000  Level Miami Center
Sun 01:45:29 PM 23.4167 -73.8500 305° West 433 498 40,000  Level Miami Center
Sun 01:46:29 PM 23.4814 -73.9594 303° West 433 498 40,000  Level Miami Center
Sun 01:47:29 PM 23.5483 -74.0644 305° West 433 498 40,000  Level Miami Center
Sun 01:48:29 PM 23.6211 -74.1717 307° West 433 498 40,000  Level Miami Center
Sun 01:49:29 PM 23.6858 -74.2769 304° West 433 498 40,000  Level Miami Center
Sun 01:50:29 PM 23.7525 -74.3867 304° West 433 498 40,000  Level Miami Center
Sun 01:51:29 PM 23.8231 -74.4944 306° West 433 498 40,000  Level Miami Center
Sun 01:52:29 PM 23.8875 -74.6044 303° West 433 498 40,000  Level Miami Center
Sun 01:53:29 PM 23.9558 -74.7125 305° West 433 498 40,000  Level Miami Center
Sun 01:54:29 PM 24.0222 -74.8206 304° West 433 498 40,000  Level Miami Center
Sun 01:55:29 PM 24.0906 -74.9286 305° West 433 498 40,000  Level Miami Center
Sun 01:56:29 PM 24.1589 -75.0369 305° West 433 498 40,000  Level Miami Center
Sun 01:57:29 PM 24.2250 -75.1475 303° West 433 498 40,000  Level Miami Center
Sun 01:58:29 PM 24.2931 -75.2561 305° West 433 498 40,000  Level Miami Center
Sun 01:59:29 PM 24.3589 -75.3647 304° West 433 498 40,000  Level Miami Center
Sun 02:00:30 PM 24.4247 -75.4733 304° West 433 498 40,000  Level Miami Center
Sun 02:01:29 PM 24.4928 -75.5844 304° West 433 498 40,000 -151 Level Miami Center
Sun 02:02:29 PM 24.5583 -75.6936 303° West 433 498 39,700 -1,050 Descending Miami Center
Sun 02:03:29 PM 24.6281 -75.8094 304° West 439 505 37,900 -1,800 Descending Miami Center
Sun 02:04:29 PM 24.7000 -75.9256 304° West 450 518 36,100 -950 Descending Miami Center
Sun 02:05:29 PM 24.7739 -76.0439 305° West 457 526 36,000 -350 Descending Miami Center
Sun 02:06:29 PM 24.8478 -76.1694 303° West 474 545 35,400 -1,150 Descending Miami Center
Sun 02:07:29 PM 24.9192 -76.2928 303° West 480 552 33,700 -1,700 Descending Miami Center
Sun 02:08:29 PM 24.9928 -76.4164 303° West 480 552 32,000 -1,700 Descending Miami Center
Sun 02:09:29 PM 25.0706 -76.5400 305° West 480 552 30,300 -1,750 Descending Miami Center
Sun 02:10:29 PM 25.1417 -76.6614 303° West 480 552 28,500 -1,650 Descending Miami Center
Sun 02:11:29 PM 25.2131 -76.7831 303° West 474 545 27,000 -750 Descending Miami Center
Sun 02:12:29 PM 25.2861 -76.9047 304° West 474 545 27,000  Level Miami Center
Sun 02:13:29 PM 25.3569 -77.0267 303° West 474 545 27,000  Level Miami Center
Sun 02:14:29 PM 25.4300 -77.1486 304° West 474 545 27,000  Level Miami Center
Sun 02:15:29 PM 25.5028 -77.2708 303° West 479 551 27,000  Level Miami Center
Sun 02:16:29 PM 25.5736 -77.3933 303° West 479 551 27,000  Level Miami Center
Sun 02:17:29 PM 25.6544 -77.5297 303° West 479 551 27,000  Level Miami Center
Sun 02:18:29 PM 25.7269 -77.6522 303° West 479 551 27,000 -400 Level Miami Center
Sun 02:19:29 PM 25.7953 -77.7728 302° West 474 545 26,200 -500 Descending Miami Center
Sun 02:20:29 PM 25.8633 -77.8911 303° West 469 540 26,000 -350 Descending Miami Center
Sun 02:21:29 PM 25.9317 -78.0094 303° West 463 533 25,500 -1,000 Descending Miami Center
Sun 02:22:29 PM 25.9933 -78.1142 303° West 439 505 24,000 -750 Descending Miami Center
Sun 02:23:29 PM 26.0550 -78.2211 303° West 428 493 24,000 -450 Level Miami Center
Sun 02:24:29 PM 26.1167 -78.3283 303° West 423 487 23,100 -1,700 Descending Miami Center
Sun 02:25:29 PM 26.2083 -78.3664 340° North 347 399 20,600 -2,450 Descending Miami Center
Sun 02:26:29 PM 26.2575 -78.2653 62° Northeast 234 269 18,200 -2,400 Descending Miami Center
Sun 02:27:29 PM 26.1914 -78.1764 130° Southeast 196 226 15,800 -2,500 Descending Miami Center
Sun 02:28:29 PM 26.1142 -78.1500 163° South 215 247 13,200 -3,050 Descending Miami Center
Sun 02:29:29 PM 26.1011 -78.2286 260° West 153 176 9,700 -3,100 Descending Miami Center
Sun 02:30:29 PM 26.1233 -78.3075 287° West 184 212 7,000 -2,300 Descending Miami Center
Sun 02:31:29 PM 26.1622 -78.3728 304° West 219 252 5,100 -1,900 Descending Miami Center

Login

Don't have an account? Register now (free) for customized features, flight alerts, and more!